Terminal Aerodrome Forecast
Issued by NWS Caribou, ME

Home | Current Version | Previous Version | Text Only | Print | Product List | Glossary On
Versions: 1 2 3 4 5 6 7 8 9 10 11 12 13 14 15 16 17 18 19 20 21 22
000
FTUS41 KCAR 181700 RRA
TAFCAR
TAF
KCAR 181750Z 1818/1918 15010KT P6SM BKN150
     FM190700 19003KT P6SM -SHSN SCT025 OVC050
     FM190800 19003KT 2SM -SHSN OVC020
     FM191600 32008G15KT 5SM -SHSN OVC025=

USA.gov is the U.S. government's official web portal to all federal, state and local government web resources and services.